Time;durP1;ratioP1;P1;durP2;ratioP2;P2;SDS_P1;SDS_P2;PMS_P1;PMS_P2;Temp;Humidity;BMP_temperature;BMP_pressure;BME280_temperature;BME280_humidity;BME280_pressure;Samples;Min_cycle;Max_cycle;Signal;HPM_P1;HPM_P2
2022/09/17 00:07:04;;;;;;;2.67;1.30;;;;;;;11.05;100.00;97516.34;18346503;32;20449;-60
2022/09/17 00:17:07;;;;;;;2.80;1.12;;;;;;;10.91;100.00;97520.72;18416176;32;20058;-60
2022/09/17 00:27:09;;;;;;;5.00;1.10;;;;;;;10.77;100.00;97528.59;18431413;32;20097;-60
2022/09/17 00:37:11;;;;;;;2.17;0.88;;;;;;;10.66;100.00;97525.13;18430407;32;20495;-60
2022/09/17 00:47:25;;;;;;;4.07;0.87;;;;;;;10.58;100.00;97536.47;18430707;32;20332;-60
2022/09/17 00:57:29;;;;;;;4.73;0.97;;;;;;;10.41;100.00;97537.59;18448395;32;20064;-60
2022/09/17 01:08:16;;;;;;;2.22;0.82;;;;;;;10.35;100.00;97549.50;18495238;32;20433;-60
2022/09/17 01:18:36;;;;;;;2.07;1.37;;;;;;;10.47;100.00;97557.31;18292653;32;20124;-60
2022/09/17 01:28:51;;;;;;;7.23;1.20;;;;;;;10.51;100.00;97561.91;18292819;32;20148;-60
2022/09/17 01:39:11;;;;;;;3.45;0.95;;;;;;;10.58;100.00;97577.03;18292343;32;20066;-60
2022/09/17 01:49:15;;;;;;;1.60;0.93;;;;;;;10.54;100.00;97573.25;18481454;32;20388;-60
2022/09/17 01:59:28;;;;;;;4.70;0.97;;;;;;;10.40;100.00;97573.84;18504202;32;20360;-60
2022/09/17 02:09:38;;;;;;;3.57;1.13;;;;;;;10.40;100.00;97581.12;18504085;32;20098;-60
2022/09/17 02:19:41;;;;;;;1.20;0.83;;;;;;;10.41;100.00;97594.34;18503308;32;20065;-60
2022/09/17 02:29:44;;;;;;;1.77;0.70;;;;;;;10.46;100.00;97598.97;18488715;32;20097;-60
2022/09/17 02:39:46;;;;;;;4.43;1.30;;;;;;;10.44;100.00;97609.22;18501881;32;20112;-60
2022/09/17 02:50:05;;;;;;;2.70;0.80;;;;;;;10.41;100.00;97626.78;18501397;32;20060;-62
2022/09/17 03:00:17;;;;;;;1.70;0.70;;;;;;;10.34;100.00;97615.41;18499668;32;20425;-62
2022/09/17 03:10:19;;;;;;;1.23;0.43;;;;;;;10.18;100.00;97620.81;18500676;32;20053;-62
2022/09/17 03:20:22;;;;;;;0.87;0.40;;;;;;;10.01;100.00;97618.34;18485364;32;20053;-62
2022/09/17 03:30:24;;;;;;;1.40;0.60;;;;;;;9.77;100.00;97615.34;18498389;32;20129;-63
2022/09/17 03:40:27;;;;;;;2.73;0.50;;;;;;;9.60;100.00;97607.44;18484157;32;20456;-62
2022/09/17 03:50:29;;;;;;;4.47;0.70;;;;;;;9.44;100.00;97609.28;18497747;32;20098;-62
2022/09/17 04:00:32;;;;;;;3.70;0.73;;;;;;;9.27;100.00;97603.28;18295135;32;20065;-62
2022/09/17 04:10:34;;;;;;;7.10;0.50;;;;;;;9.13;100.00;97606.44;18282685;32;20624;-62
2022/09/17 04:20:37;;;;;;;6.13;0.80;;;;;;;9.03;100.00;97627.97;18295058;32;20344;-62
2022/09/17 04:30:41;;;;;;;2.17;0.80;;;;;;;8.98;100.00;97631.44;18301507;32;20117;-62
2022/09/17 04:40:45;;;;;;;5.23;0.80;;;;;;;8.92;100.00;97642.44;18430419;32;20096;-62
2022/09/17 04:50:47;;;;;;;0.97;0.67;;;;;;;8.94;100.00;97651.09;18430698;32;20159;-62
2022/09/17 05:00:50;;;;;;;1.73;0.60;;;;;;;8.96;100.00;97644.38;18456058;32;20057;-62
2022/09/17 05:10:53;;;;;;;5.43;1.00;;;;;;;9.11;100.00;97657.16;18494619;32;20404;-62
2022/09/17 05:20:55;;;;;;;1.63;0.80;;;;;;;9.21;100.00;97660.97;18499648;32;20065;-62
2022/09/17 05:30:58;;;;;;;2.43;0.60;;;;;;;9.24;100.00;97682.03;18506270;32;20068;-63
2022/09/17 05:41:05;;;;;;;0.97;0.53;;;;;;;9.38;100.00;97685.88;18505453;32;20132;-62
2022/09/17 05:51:08;;;;;;;3.13;0.80;;;;;;;9.35;100.00;97683.72;18505628;32;20056;-62
2022/09/17 06:01:14;;;;;;;1.13;0.57;;;;;;;9.45;100.00;97699.94;18504361;32;20537;-62
2022/09/17 06:11:17;;;;;;;2.67;0.70;;;;;;;9.52;100.00;97702.41;18483061;32;20125;-60
2022/09/17 06:21:23;;;;;;;2.43;0.33;;;;;;;9.65;100.00;97695.75;18503155;32;20049;-60
2022/09/17 06:31:25;;;;;;;3.43;0.60;;;;;;;9.81;100.00;97715.50;18501994;32;20057;-60
2022/09/17 06:41:28;;;;;;;1.07;0.40;;;;;;;9.73;95.27;97737.63;18488068;32;20057;-60
2022/09/17 06:51:30;;;;;;;1.57;0.40;;;;;;;9.84;100.00;97756.31;18474660;32;20106;-60
2022/09/17 07:01:33;;;;;;;0.57;0.40;;;;;;;9.90;99.12;97776.06;18500533;32;20125;-60
2022/09/17 07:11:35;;;;;;;0.50;0.37;;;;;;;10.09;100.00;97776.41;18486060;32;20369;-60
2022/09/17 07:21:37;;;;;;;1.37;0.60;;;;;;;10.09;100.00;97778.31;18499438;32;20108;-60
2022/09/17 07:31:40;;;;;;;1.63;0.40;;;;;;;10.36;95.01;97777.34;18498825;32;20060;-60
2022/09/17 07:41:43;;;;;;;1.50;0.40;;;;;;;10.50;99.33;97798.19;18484034;32;20049;-60
2022/09/17 07:51:45;;;;;;;3.70;0.50;;;;;;;10.63;95.16;97806.87;18497825;32;20426;-60
2022/09/17 08:01:48;;;;;;;0.77;0.40;;;;;;;11.23;91.93;97812.63;18482622;32;20053;-60
2022/09/17 08:11:51;;;;;;;0.75;0.35;;;;;;;11.64;88.08;97818.03;18497111;32;20471;-60
2022/09/17 08:21:58;;;;;;;1.50;0.60;;;;;;;11.65;85.78;97816.13;18358657;32;20236;-60
2022/09/17 08:32:02;;;;;;;1.15;0.32;;;;;;;11.78;84.76;97825.59;18357863;32;20131;-60
2022/09/17 08:42:35;;;;;;;5.25;0.90;;;;;;;12.28;85.85;97836.56;18357474;32;20495;-60
2022/09/17 08:52:58;;;;;;;0.62;0.37;;;;;;;12.67;84.72;97841.28;18475352;32;20110;-61
2022/09/17 09:03:19;;;;;;;1.15;0.43;;;;;;;12.98;85.08;97855.50;18507633;32;20052;-61
2022/09/17 09:13:32;;;;;;;2.50;0.77;;;;;;;13.22;74.14;97861.06;18369554;32;20138;-61
2022/09/17 09:23:39;;;;;;;4.70;0.70;;;;;;;13.39;75.49;97860.69;18368951;32;20101;-60
2022/09/17 09:33:45;;;;;;;2.90;0.80;;;;;;;13.19;71.51;97861.59;18368554;32;20077;-61
2022/09/17 09:43:58;;;;;;;1.77;0.60;;;;;;;13.68;79.63;97861.81;18391928;32;20090;-60
2022/09/17 09:54:27;;;;;;;1.73;0.47;;;;;;;14.00;74.58;97872.09;18492381;32;20351;-61
2022/09/17 10:04:33;;;;;;;2.40;0.60;;;;;;;14.01;75.70;97881.06;18489432;32;20049;-60
2022/09/17 10:14:37;;;;;;;2.80;0.37;;;;;;;13.82;80.76;97879.06;18503853;32;20075;-60
2022/09/17 10:24:39;;;;;;;2.12;0.60;;;;;;;13.58;77.11;97879.00;18503063;32;20373;-61
2022/09/17 10:34:58;;;;;;;2.03;0.65;;;;;;;13.39;82.19;97874.25;18502467;32;20049;-61
2022/09/17 10:45:01;;;;;;;1.42;0.37;;;;;;;12.98;73.33;97871.00;18495163;32;20076;-61
2022/09/17 10:55:09;;;;;;;1.35;0.50;;;;;;;13.52;77.05;97870.06;18500785;32;20095;-61
2022/09/17 11:05:49;;;;;;;0.90;0.40;;;;;;;13.90;71.84;97862.13;18501091;32;20594;-61
2022/09/17 11:16:11;;;;;;;3.60;0.55;;;;;;;13.95;72.34;97864.00;18499273;32;20080;-61
2022/09/17 11:26:35;;;;;;;1.80;0.65;;;;;;;14.09;74.33;97875.00;18499334;32;20056;-61
2022/09/17 11:37:03;;;;;;;2.00;0.43;;;;;;;14.70;77.42;97875.41;18465038;32;20068;-61
2022/09/17 11:47:15;;;;;;;4.53;0.80;;;;;;;14.66;74.18;97869.75;18498046;32;20069;-61
2022/09/17 11:57:31;;;;;;;1.17;0.37;;;;;;;15.08;68.39;97867.28;18483347;32;20063;-61
2022/09/17 12:07:47;;;;;;;2.92;0.40;;;;;;;15.46;61.07;97880.06;18496981;32;20353;-61
2022/09/17 12:18:37;;;;;;;1.62;0.50;;;;;;;15.10;68.07;97873.22;18496396;32;20091;-61
2022/09/17 12:29:24;;;;;;;2.58;0.60;;;;;;;14.62;65.79;97867.87;18294600;32;20484;-61
2022/09/17 12:39:34;;;;;;;2.67;0.80;;;;;;;14.53;72.05;97871.22;18106125;32;20071;-61
2022/09/17 12:49:57;;;;;;;3.85;0.60;;;;;;;14.57;74.46;97866.84;18105881;32;20086;-61
2022/09/17 13:00:05;;;;;;;1.73;0.80;;;;;;;15.09;68.29;97879.81;18151738;32;20101;-61
2022/09/17 13:10:27;;;;;;;2.80;0.62;;;;;;;15.52;69.19;97870.69;18304010;32;20444;-61
2022/09/17 13:20:42;;;;;;;0.85;0.52;;;;;;;15.44;64.63;97876.81;18494583;32;20166;-60
2022/09/17 13:31:00;;;;;;;1.77;0.73;;;;;;;15.10;68.07;97862.34;18494278;32;20053;-61
2022/09/17 13:41:21;;;;;;;1.75;0.52;;;;;;;15.21;71.24;97843.94;18483755;32;20075;-61
2022/09/17 13:51:33;;;;;;;1.85;0.43;;;;;;;15.23;63.44;97858.87;18491755;32;20053;-61
2022/09/17 14:01:59;;;;;;;1.73;0.40;;;;;;;15.00;68.76;97860.56;18504200;32;20368;-62
2022/09/17 14:12:02;;;;;;;4.25;1.05;;;;;;;15.46;67.76;97869.16;18504110;32;20090;-61
2022/09/17 14:22:04;;;;;;;1.42;0.73;;;;;;;15.78;70.39;97859.37;18469965;32;20048;-61
2022/09/17 14:32:14;;;;;;;1.42;0.43;;;;;;;15.52;63.95;97863.31;18502392;32;20057;-60
2022/09/17 14:42:30;;;;;;;2.60;0.80;;;;;;;15.02;63.16;97855.66;18501085;32;20057;-61
2022/09/17 14:52:33;;;;;;;2.28;0.60;;;;;;;14.93;64.67;97862.06;18500539;32;20093;-60
2022/09/17 15:02:44;;;;;;;4.60;0.80;;;;;;;14.55;66.94;97855.44;18500685;32;20053;-61
2022/09/17 15:12:49;;;;;;;1.50;0.73;;;;;;;14.73;71.13;97863.94;18486191;32;20420;-61
2022/09/17 15:23:14;;;;;;;1.05;0.60;;;;;;;14.53;73.00;97854.91;18499325;32;20075;-61
2022/09/17 15:33:18;;;;;;;2.40;0.80;;;;;;;14.36;76.18;97855.41;18499037;32;20045;-61
2022/09/17 15:43:26;;;;;;;4.90;0.55;;;;;;;14.30;70.08;97855.75;18498213;32;20060;-61
2022/09/17 15:53:31;;;;;;;2.92;0.50;;;;;;;14.20;71.48;97857.47;18497826;32;20475;-61
2022/09/17 16:03:37;;;;;;;2.30;0.68;;;;;;;13.96;70.00;97865.59;18295145;32;20141;-61
2022/09/17 16:13:40;;;;;;;3.12;0.60;;;;;;;13.82;73.54;97876.34;18295068;32;20086;-61
2022/09/17 16:23:43;;;;;;;2.05;0.60;;;;;;;13.82;76.60;97879.06;18295089;32;20143;-61
2022/09/17 16:33:46;;;;;;;0.57;0.28;;;;;;;13.72;76.30;97884.59;18302428;32;20099;-61
2022/09/17 16:43:48;;;;;;;1.52;0.30;;;;;;;13.87;77.44;97898.03;18430927;32;20118;-61
2022/09/17 16:53:52;;;;;;;2.08;0.43;;;;;;;13.59;72.81;97905.06;18417434;32;20083;-61
2022/09/17 17:03:58;;;;;;;2.95;0.62;;;;;;;13.14;78.19;97905.09;18486122;32;20104;-61
2022/09/17 17:14:04;;;;;;;2.15;0.60;;;;;;;12.92;81.30;97919.03;18494573;32;20354;-61
2022/09/17 17:24:07;;;;;;;2.70;0.35;;;;;;;12.76;83.41;97910.16;18507276;32;20065;-61
2022/09/17 17:34:09;;;;;;;0.82;0.43;;;;;;;12.45;86.65;97912.19;18506255;32;20094;-61
2022/09/17 17:44:12;;;;;;;2.22;0.47;;;;;;;12.20;88.07;97916.59;18505647;32;20075;-61
2022/09/17 17:54:15;;;;;;;4.68;0.40;;;;;;;12.06;89.78;97927.19;18491145;32;20054;-61
2022/09/17 18:04:17;;;;;;;2.22;0.62;;;;;;;11.91;90.17;97935.28;18504196;32;20076;-61
2022/09/17 18:14:19;;;;;;;1.58;0.62;;;;;;;11.83;92.24;97945.59;18490124;32;20049;-61
2022/09/17 18:24:22;;;;;;;0.98;0.45;;;;;;;11.77;93.19;97959.41;18503127;32;20112;-61
2022/09/17 18:34:25;;;;;;;1.37;0.32;;;;;;;11.70;94.20;97974.06;18502601;32;20065;-61
2022/09/17 18:44:27;;;;;;;3.42;0.50;;;;;;;11.67;95.46;97979.97;18501965;32;20060;-61
2022/09/17 18:54:30;;;;;;;1.90;0.60;;;;;;;11.61;95.98;97999.22;18495021;32;20075;-61
2022/09/17 19:04:32;;;;;;;1.58;0.50;;;;;;;11.57;97.25;98030.66;18500584;32;20052;-61
2022/09/17 19:14:36;;;;;;;2.70;0.68;;;;;;;11.46;99.32;98032.50;18500226;32;20467;-61
2022/09/17 19:24:38;;;;;;;2.05;0.60;;;;;;;11.34;100.00;98036.25;18485935;32;20057;-61
2022/09/17 19:34:41;;;;;;;3.03;0.90;;;;;;;11.23;100.00;98040.00;18498894;32;20108;-61
2022/09/17 19:44:44;;;;;;;5.90;0.70;;;;;;;11.13;100.00;98043.50;18483967;32;20053;-61
2022/09/17 19:54:49;;;;;;;3.50;0.73;;;;;;;11.07;100.00;98036.41;18497441;32;20426;-61
2022/09/17 20:04:52;;;;;;;4.62;0.93;;;;;;;11.00;100.00;98041.25;18497426;32;20112;-61
2022/09/17 20:14:55;;;;;;;2.20;0.70;;;;;;;10.95;100.00;98054.75;18496803;32;20079;-61
2022/09/17 20:24:57;;;;;;;2.20;0.57;;;;;;;10.90;100.00;98055.56;18482053;32;20056;-61
2022/09/17 20:35:00;;;;;;;2.50;0.73;;;;;;;10.88;100.00;98059.59;18496225;32;20090;-61
2022/09/17 20:45:05;;;;;;;0.80;0.57;;;;;;;10.81;100.00;98055.25;18475118;32;20112;-61
2022/09/17 20:55:08;;;;;;;1.07;0.30;;;;;;;10.77;100.00;98064.97;18491485;32;20064;-61
2022/09/17 21:05:14;;;;;;;3.97;0.80;;;;;;;10.71;100.00;98060.59;18482269;32;20097;-61
2022/09/17 21:15:17;;;;;;;1.90;0.53;;;;;;;10.63;100.00;98063.78;18507580;32;20075;-61
2022/09/17 21:25:19;;;;;;;1.37;0.40;;;;;;;10.55;100.00;98073.22;18506893;32;20053;-61
2022/09/17 21:35:24;;;;;;;2.93;0.60;;;;;;;10.49;100.00;98069.62;18506537;32;20117;-61
2022/09/17 21:45:26;;;;;;;;;;;;;;;10.42;100.00;98062.84;18505881;32;20060;-61
2022/09/17 21:55:29;;;;;;;4.60;0.47;;;;;;;10.40;100.00;98075.78;18491731;32;20004;-61
2022/09/17 22:05:32;;;;;;;2.33;0.43;;;;;;;10.38;100.00;98072.53;18490198;32;20105;-61
2022/09/17 22:15:34;;;;;;;2.43;0.60;;;;;;;10.36;100.00;98072.78;18365527;32;20256;-61
2022/09/17 22:25:37;;;;;;;6.33;0.50;;;;;;;10.33;100.00;98075.97;18352469;32;20092;-61
2022/09/17 22:35:40;;;;;;;1.40;0.53;;;;;;;10.30;100.00;98076.47;18237377;32;20497;-61
2022/09/17 22:45:42;;;;;;;2.30;0.50;;;;;;;10.23;100.00;98067.78;18255449;32;20452;-61
2022/09/17 22:55:55;;;;;;;1.13;0.50;;;;;;;10.08;100.00;98071.16;18363611;32;20169;-61
2022/09/17 23:05:58;;;;;;;3.27;0.60;;;;;;;9.89;100.00;98062.63;18374533;32;20436;-61
2022/09/17 23:16:07;;;;;;;1.77;0.40;;;;;;;9.70;100.00;98062.97;18435182;32;20061;-61
2022/09/17 23:26:18;;;;;;;5.33;0.43;;;;;;;9.56;100.00;98062.56;18426635;32;20073;-61
2022/09/17 23:36:25;;;;;;;3.73;0.40;;;;;;;9.45;100.00;98058.13;18297405;32;20062;-61
2022/09/17 23:46:31;;;;;;;2.23;0.60;;;;;;;9.30;100.00;98050.66;18296970;32;20115;-61
2022/09/17 23:56:34;;;;;;;1.63;0.50;;;;;;;9.15;100.00;98054.81;18335645;32;20057;-61
